createdAt,value
2022-08-18T00:00:23.458Z,21.77
2022-08-18T00:03:20.243Z,21.10
2022-08-18T00:06:19.618Z,24.15
2022-08-18T00:09:09.639Z,24.95
2022-08-18T00:11:56.931Z,21.67
2022-08-18T00:14:46.015Z,25.98
2022-08-18T00:17:34.630Z,22.73
2022-08-18T00:20:23.692Z,26.75
2022-08-18T00:23:11.057Z,22.83
2022-08-18T00:25:59.902Z,23.13
2022-08-18T00:28:47.158Z,26.00
2022-08-18T00:31:34.554Z,26.30
2022-08-18T00:34:21.778Z,25.50
2022-08-18T00:37:09.053Z,26.73
2022-08-18T00:39:56.470Z,25.48
2022-08-18T00:42:48.760Z,26.10
2022-08-18T00:45:40.665Z,27.88
2022-08-18T00:48:27.946Z,27.83
2022-08-18T00:51:20.950Z,26.67
2022-08-18T00:54:16.142Z,27.38
2022-08-18T00:57:06.832Z,27.83
2022-08-18T01:00:07.458Z,27.15
2022-08-18T01:02:57.763Z,30.98
2022-08-18T01:06:10.244Z,30.88
2022-08-18T01:08:57.956Z,29.95
2022-08-18T01:11:46.005Z,24.83
2022-08-18T01:14:33.272Z,28.40
2022-08-18T01:17:39.910Z,33.13
2022-08-18T01:20:52.746Z,29.95
2022-08-18T01:23:40.410Z,30.10
2022-08-18T01:26:30.289Z,29.13
2022-08-18T01:29:19.644Z,28.92
2022-08-18T01:34:54.864Z,29.45
2022-08-18T01:37:42.179Z,30.80
2022-08-18T01:41:17.457Z,29.17
2022-08-18T01:43:37.379Z,32.67
2022-08-18T01:46:24.728Z,32.25
2022-08-18T01:49:13.203Z,31.20
2022-08-18T01:52:00.538Z,34.30
2022-08-18T01:54:48.807Z,39.03
2022-08-18T01:57:44.873Z,41.70
2022-08-18T02:00:32.479Z,40.60
2022-08-18T02:03:20.095Z,37.78
2022-08-18T02:06:14.727Z,35.92
2022-08-18T02:09:02.242Z,38.28
2022-08-18T02:11:55.846Z,37.92
2022-08-18T02:14:43.806Z,36.83
2022-08-18T02:17:37.962Z,39.83
2022-08-18T02:20:25.525Z,36.45
2022-08-18T02:23:12.777Z,35.38
2022-08-18T02:26:04.644Z,38.38
2022-08-18T02:28:52.327Z,42.38
2022-08-18T02:31:39.805Z,40.58
2022-08-18T02:34:27.162Z,40.35
2022-08-18T02:37:15.558Z,43.33
2022-08-18T02:40:03.970Z,39.03
2022-08-18T02:42:52.710Z,39.20
2022-08-18T02:45:40.145Z,38.28
2022-08-18T02:48:36.510Z,42.35
2022-08-18T02:51:25.787Z,40.28
2022-08-18T02:54:13.386Z,38.22
2022-08-18T02:57:07.973Z,43.03
2022-08-18T02:59:55.487Z,40.28
2022-08-18T03:02:51.359Z,41.72
2022-08-18T03:05:39.325Z,41.10
2022-08-18T03:08:26.608Z,45.90
2022-08-18T03:11:13.979Z,43.38
2022-08-18T03:14:01.338Z,43.22
2022-08-18T03:16:54.522Z,41.40
2022-08-18T03:19:44.947Z,41.20
2022-08-18T03:22:35.064Z,44.97
2022-08-18T03:25:22.403Z,43.50
2022-08-18T03:28:09.895Z,47.33
2022-08-18T03:30:57.428Z,44.75
2022-08-18T03:33:46.446Z,41.83
2022-08-18T03:36:35.314Z,43.70
2022-08-18T03:39:26.864Z,45.15
2022-08-18T03:42:14.187Z,48.53
2022-08-18T03:45:01.452Z,43.58
2022-08-18T03:48:05.025Z,42.03
2022-08-18T03:50:52.268Z,44.63
2022-08-18T03:53:40.175Z,44.47
2022-08-18T03:56:33.961Z,50.72
2022-08-18T03:59:24.083Z,43.38
2022-08-18T04:02:11.877Z,44.35
2022-08-18T04:04:59.157Z,47.17
2022-08-18T04:07:46.435Z,46.13
2022-08-18T04:10:35.453Z,48.33
2022-08-18T04:13:22.695Z,47.63
2022-08-18T04:16:10.514Z,49.03
2022-08-18T04:19:04.844Z,50.33
2022-08-18T04:21:53.472Z,50.97
2022-08-18T04:24:40.742Z,48.10
2022-08-18T04:27:29.653Z,49.80
2022-08-18T04:30:16.951Z,49.72
2022-08-18T04:33:06.273Z,47.85
2022-08-18T04:35:55.301Z,46.25
2022-08-18T04:38:42.785Z,48.08
2022-08-18T04:41:30.108Z,52.00
2022-08-18T04:44:18.459Z,52.17
2022-08-18T04:47:07.498Z,67.25
2022-08-18T04:49:54.756Z,74.00
2022-08-18T04:53:01.946Z,76.95
2022-08-18T04:55:55.323Z,102.45
2022-08-18T04:58:42.584Z,100.78
2022-08-18T05:01:37.483Z,96.38
2022-08-18T05:04:28.624Z,98.53
2022-08-18T05:07:19.651Z,102.80
2022-08-18T05:10:07.135Z,98.05
2022-08-18T05:12:54.610Z,97.60
2022-08-18T05:16:08.994Z,97.30
2022-08-18T05:18:49.681Z,100.60
2022-08-18T05:21:42.842Z,100.03
2022-08-18T05:24:37.582Z,98.75
2022-08-18T05:27:25.148Z,88.65
2022-08-18T05:30:15.332Z,86.53
2022-08-18T05:33:03.493Z,88.80
2022-08-18T05:36:03.477Z,78.55
2022-08-18T05:38:58.786Z,76.15
2022-08-18T05:42:11.146Z,84.63
2022-08-18T05:45:00.335Z,83.30
2022-08-18T05:47:47.860Z,73.90
2022-08-18T05:50:37.770Z,75.53
2022-08-18T05:53:45.124Z,77.18
2022-08-18T05:56:46.398Z,73.75
2022-08-18T05:59:38.402Z,75.53
2022-08-18T06:02:38.452Z,77.70
2022-08-18T06:05:31.626Z,85.13
2022-08-18T06:08:22.548Z,86.20
2022-08-18T06:11:17.365Z,92.13
2022-08-18T06:14:10.787Z,100.63
2022-08-18T06:17:02.519Z,98.82
2022-08-18T06:20:01.651Z,94.03
2022-08-18T06:23:06.127Z,82.82
2022-08-18T06:26:19.753Z,86.72
2022-08-18T06:29:37.975Z,80.53
2022-08-18T06:32:54.621Z,96.45
2022-08-18T06:35:54.916Z,87.55
2022-08-18T06:39:16.094Z,85.88
2022-08-18T06:42:05.538Z,88.53
2022-08-18T06:47:54.678Z,93.90
2022-08-18T06:50:50.195Z,86.35
2022-08-18T06:54:21.478Z,90.55
2022-08-18T06:57:22.402Z,90.35
2022-08-18T07:00:25.575Z,86.95
2022-08-18T07:03:17.800Z,85.35
2022-08-18T07:06:06.867Z,91.30
2022-08-18T07:09:15.376Z,88.38
2022-08-18T07:12:10.860Z,85.63
2022-08-18T07:15:01.846Z,92.72
2022-08-18T07:17:56.263Z,87.68
2022-08-18T07:20:48.584Z,82.35
2022-08-18T07:23:39.674Z,81.53
2022-08-18T07:26:27.017Z,78.82
2022-08-18T07:29:15.672Z,76.15
2022-08-18T07:32:20.835Z,66.88
2022-08-18T07:35:09.958Z,60.83
2022-08-18T07:38:41.088Z,64.78
2022-08-18T07:41:31.814Z,57.03
2022-08-18T07:44:45.123Z,58.53
2022-08-18T07:47:41.641Z,64.22
2022-08-18T07:50:58.672Z,60.00
2022-08-18T07:56:02.539Z,54.65
2022-08-18T07:58:59.625Z,54.25
2022-08-18T08:02:08.963Z,55.60
2022-08-18T08:07:59.594Z,53.00
2022-08-18T08:10:59.194Z,51.53
2022-08-18T08:13:58.353Z,55.30
2022-08-18T08:16:50.400Z,52.45
2022-08-18T08:20:01.882Z,51.65
2022-08-18T08:22:52.560Z,53.35
2022-08-18T08:25:49.983Z,49.33
2022-08-18T08:28:56.129Z,50.45
2022-08-18T08:31:53.105Z,50.60
2022-08-18T08:34:54.982Z,46.03
2022-08-18T08:38:22.940Z,46.78
2022-08-18T08:41:20.113Z,45.35
2022-08-18T08:44:30.346Z,45.80
2022-08-18T08:47:30.084Z,44.10
2022-08-18T08:50:22.869Z,44.17
2022-08-18T08:53:24.864Z,45.22
2022-08-18T08:56:16.126Z,41.38
2022-08-18T08:59:08.690Z,41.55
2022-08-18T09:02:32.197Z,42.38
2022-08-18T09:05:27.043Z,44.13
2022-08-18T09:08:43.105Z,42.88
2022-08-18T09:11:44.165Z,46.10
2022-08-18T09:14:56.106Z,41.05
2022-08-18T09:18:23.851Z,41.00
2022-08-18T09:21:41.114Z,43.42
2022-08-18T09:24:40.471Z,43.20
2022-08-18T09:31:02.903Z,36.78
2022-08-18T09:33:56.588Z,35.88
2022-08-18T09:36:49.750Z,37.55
2022-08-18T09:40:10.845Z,37.63
2022-08-18T09:44:17.998Z,37.10
2022-08-18T09:47:24.250Z,35.67
2022-08-18T09:50:27.044Z,33.85
2022-08-18T09:53:32.543Z,36.65
2022-08-18T09:56:54.538Z,38.85
2022-08-18T09:59:45.765Z,32.40
2022-08-18T10:02:36.818Z,37.72
2022-08-18T10:05:29.223Z,34.75
2022-08-18T10:08:21.413Z,32.30
2022-08-18T10:11:37.010Z,35.53
2022-08-18T10:14:39.603Z,36.42
2022-08-18T10:18:01.647Z,34.42
2022-08-18T10:21:07.526Z,32.40
2022-08-18T10:24:35.024Z,29.88
2022-08-18T10:27:44.318Z,35.35
2022-08-18T10:30:56.983Z,34.58
2022-08-18T10:34:16.967Z,33.25
2022-08-18T10:37:26.334Z,32.47
2022-08-18T10:40:21.358Z,30.80
2022-08-18T10:46:42.626Z,29.17
2022-08-18T10:49:34.173Z,30.08
2022-08-18T10:52:33.963Z,30.95
2022-08-18T10:55:48.422Z,31.88
2022-08-18T10:58:54.731Z,33.50
2022-08-18T11:02:01.763Z,31.30
2022-08-18T11:04:58.896Z,32.00
2022-08-18T11:07:53.522Z,27.23
2022-08-18T11:11:24.828Z,30.25
2022-08-18T11:14:35.864Z,33.78
2022-08-18T11:17:40.658Z,33.20
2022-08-18T11:20:32.588Z,32.05
2022-08-18T11:23:20.750Z,29.25
2022-08-18T11:26:18.355Z,32.28
2022-08-18T11:29:24.405Z,32.78
2022-08-18T11:32:23.071Z,32.65
2022-08-18T11:35:10.680Z,29.73
2022-08-18T11:38:13.522Z,30.27
2022-08-18T11:41:33.145Z,30.13
2022-08-18T11:44:38.651Z,29.67
2022-08-18T11:47:27.785Z,28.90
2022-08-18T11:50:28.135Z,27.35
2022-08-18T11:53:33.555Z,28.98
2022-08-18T11:56:30.744Z,23.92
2022-08-18T11:59:25.053Z,26.13
2022-08-18T12:02:32.338Z,28.30
2022-08-18T12:05:19.880Z,25.48
2022-08-18T12:08:41.895Z,26.60
2022-08-18T12:11:33.656Z,24.13
2022-08-18T12:14:30.391Z,31.98
2022-08-18T12:17:21.817Z,28.10
2022-08-18T12:20:11.973Z,26.70
2022-08-18T12:22:59.429Z,31.40
2022-08-18T12:25:46.722Z,24.88
2022-08-18T12:28:39.493Z,26.25
2022-08-18T12:31:29.048Z,26.20
2022-08-18T12:34:30.133Z,24.88
2022-08-18T12:37:56.707Z,27.40
2022-08-18T12:40:27.675Z,30.13
2022-08-18T12:43:14.934Z,29.27
2022-08-18T12:46:03.672Z,25.42
2022-08-18T12:48:51.642Z,29.15
2022-08-18T12:51:39.664Z,30.27
2022-08-18T12:54:27.110Z,27.35
2022-08-18T13:00:29.926Z,26.92
2022-08-18T13:03:19.059Z,30.00
2022-08-18T13:06:06.683Z,28.70
2022-08-18T13:08:58.448Z,28.30
2022-08-18T13:11:45.914Z,29.52
2022-08-18T13:14:34.031Z,26.27
2022-08-18T13:17:32.086Z,30.80
2022-08-18T13:20:21.585Z,24.50
2022-08-18T13:23:09.675Z,26.95
2022-08-18T13:26:02.175Z,25.90
2022-08-18T13:28:58.256Z,27.77
2022-08-18T13:31:55.707Z,30.85
2022-08-18T13:34:44.627Z,26.33
2022-08-18T13:37:37.414Z,28.27
2022-08-18T13:40:29.469Z,25.55
2022-08-18T13:43:20.970Z,25.08
2022-08-18T13:46:17.294Z,22.77
2022-08-18T13:49:04.555Z,27.65
2022-08-18T13:51:59.173Z,28.52
2022-08-18T13:54:53.308Z,23.52
2022-08-18T13:57:53.588Z,22.42
2022-08-18T14:00:42.094Z,20.40
2022-08-18T14:03:42.945Z,22.52
2022-08-18T14:06:35.183Z,23.15
2022-08-18T14:09:27.894Z,19.42
2022-08-18T14:12:29.614Z,20.13
2022-08-18T14:15:20.841Z,23.75
2022-08-18T14:18:08.077Z,20.38
2022-08-18T14:21:23.418Z,20.30
2022-08-18T14:24:29.170Z,19.17
2022-08-18T14:27:24.637Z,18.00
2022-08-18T14:30:14.671Z,18.25
2022-08-18T14:33:05.653Z,18.05
2022-08-18T14:36:06.226Z,15.75
2022-08-18T14:38:58.054Z,15.98
2022-08-18T14:41:54.595Z,16.70
2022-08-18T14:44:42.323Z,15.98
2022-08-18T14:47:33.333Z,15.13
2022-08-18T14:50:25.685Z,16.40
2022-08-18T14:53:14.312Z,13.98
2022-08-18T14:58:49.751Z,16.88
2022-08-18T15:01:42.738Z,16.00
2022-08-18T15:04:30.428Z,14.60
2022-08-18T15:07:19.990Z,14.10
2022-08-18T15:10:14.811Z,14.13
2022-08-18T15:13:04.255Z,14.48
2022-08-18T15:15:52.177Z,13.55
2022-08-18T15:18:41.375Z,14.05
2022-08-18T15:21:49.123Z,17.95
2022-08-18T15:24:58.657Z,14.18
2022-08-18T15:27:46.015Z,16.95
2022-08-18T15:30:39.838Z,15.55
2022-08-18T15:33:31.621Z,13.43
2022-08-18T15:36:29.190Z,14.52
2022-08-18T15:39:16.926Z,13.32
2022-08-18T15:42:10.742Z,16.55
2022-08-18T15:45:11.628Z,15.25
2022-08-18T15:47:59.832Z,13.43
2022-08-18T15:50:50.943Z,13.18
2022-08-18T15:53:40.092Z,16.42
2022-08-18T15:56:32.869Z,14.82
2022-08-18T15:59:20.428Z,13.93
2022-08-18T16:02:11.797Z,16.45
2022-08-18T16:05:10.475Z,17.23
2022-08-18T16:08:01.138Z,16.42
2022-08-18T16:10:48.396Z,13.70
2022-08-18T16:13:35.750Z,15.25
2022-08-18T16:16:29.373Z,15.63
2022-08-18T16:19:25.668Z,17.35
2022-08-18T16:22:13.364Z,17.10
2022-08-18T16:25:02.403Z,18.52
2022-08-18T16:27:49.916Z,16.65
2022-08-18T16:30:37.309Z,18.20
2022-08-18T16:33:24.735Z,17.90
2022-08-18T16:36:14.520Z,16.30
2022-08-18T16:41:48.889Z,20.38
2022-08-18T16:44:36.444Z,20.00
2022-08-18T16:47:23.740Z,18.20
2022-08-18T16:50:15.065Z,19.10
2022-08-18T16:53:02.387Z,22.58
2022-08-18T16:55:49.849Z,20.10
2022-08-18T16:58:55.771Z,22.50
2022-08-18T17:02:01.759Z,18.58
2022-08-18T17:04:51.929Z,22.42
2022-08-18T17:07:39.221Z,18.05
2022-08-18T17:10:26.962Z,22.30
2022-08-18T17:13:14.639Z,24.70
2022-08-18T17:16:01.982Z,19.30
2022-08-18T17:18:49.377Z,19.38
2022-08-18T17:21:37.557Z,17.65
2022-08-18T17:24:32.114Z,18.75
2022-08-18T17:27:26.703Z,19.63
2022-08-18T17:30:22.427Z,16.90
2022-08-18T17:33:14.968Z,16.45
2022-08-18T17:36:08.025Z,18.83
2022-08-18T17:38:58.877Z,17.80
2022-08-18T17:42:05.081Z,17.23
2022-08-18T17:44:58.981Z,19.48
2022-08-18T17:48:01.681Z,16.38
2022-08-18T17:51:28.439Z,18.25
2022-08-18T17:54:33.182Z,20.45
2022-08-18T17:57:29.384Z,19.50
2022-08-18T18:00:23.206Z,16.77
2022-08-18T18:03:13.166Z,17.52
2022-08-18T18:06:10.608Z,17.00
2022-08-18T18:09:09.739Z,16.23
2022-08-18T18:11:57.652Z,15.52
2022-08-18T18:14:44.946Z,17.85
2022-08-18T18:17:37.636Z,16.05
2022-08-18T18:20:39.463Z,17.83
2022-08-18T18:23:31.376Z,14.98
2022-08-18T18:26:37.875Z,13.35
2022-08-18T18:29:33.282Z,14.52
2022-08-18T18:32:29.137Z,12.77
2022-08-18T18:35:27.170Z,15.05
2022-08-18T18:38:36.661Z,13.35
2022-08-18T18:41:27.822Z,13.77
2022-08-18T18:44:16.220Z,14.57
2022-08-18T18:47:14.961Z,13.07
2022-08-18T18:50:18.832Z,13.05
2022-08-18T18:53:29.893Z,15.82
2022-08-18T18:56:40.985Z,15.43
2022-08-18T19:00:04.142Z,14.32
2022-08-18T19:03:22.767Z,13.80
2022-08-18T19:06:19.059Z,14.35
2022-08-18T19:09:17.718Z,13.40
2022-08-18T19:12:19.897Z,13.82
2022-08-18T19:15:14.876Z,12.60
2022-08-18T19:18:16.105Z,17.67
2022-08-18T19:22:02.271Z,13.32
2022-08-18T19:24:24.633Z,14.68
2022-08-18T19:27:23.290Z,13.23
2022-08-18T19:30:14.346Z,15.05
2022-08-18T19:33:04.302Z,17.17
2022-08-18T19:35:59.926Z,16.15
2022-08-18T19:38:47.169Z,15.13
2022-08-18T19:41:39.462Z,14.80
2022-08-18T19:45:15.397Z,15.02
2022-08-18T19:48:24.198Z,18.27
2022-08-18T19:51:27.051Z,14.40
2022-08-18T19:54:22.275Z,15.13
2022-08-18T19:57:22.398Z,14.82
2022-08-18T20:00:31.009Z,19.25
2022-08-18T20:03:52.486Z,13.10
2022-08-18T20:07:07.478Z,13.60
2022-08-18T20:10:16.830Z,19.27
2022-08-18T20:16:12.861Z,17.98
2022-08-18T20:19:01.514Z,14.02
2022-08-18T20:22:07.986Z,13.55
2022-08-18T20:25:30.338Z,15.15
2022-08-18T20:28:32.041Z,15.30
2022-08-18T20:31:22.717Z,15.07
2022-08-18T20:34:14.424Z,15.57
2022-08-18T20:37:10.186Z,15.77
2022-08-18T20:39:58.051Z,16.42
2022-08-18T20:42:56.107Z,14.15
2022-08-18T20:46:14.634Z,15.43
2022-08-18T20:49:50.333Z,14.15
2022-08-18T20:53:00.414Z,14.70
2022-08-18T20:56:31.424Z,15.68
2022-08-18T20:59:28.745Z,15.63
2022-08-18T21:02:43.089Z,14.20
2022-08-18T21:05:35.884Z,13.82
2022-08-18T21:08:28.840Z,14.50
2022-08-18T21:11:32.075Z,14.10
2022-08-18T21:14:29.985Z,17.95
2022-08-18T21:17:17.648Z,18.15
2022-08-18T21:20:13.670Z,18.40
2022-08-18T21:23:44.538Z,16.50
2022-08-18T21:26:33.545Z,18.38
2022-08-18T21:29:22.629Z,17.95
2022-08-18T21:32:12.776Z,14.57
2022-08-18T21:35:17.787Z,18.80
2022-08-18T21:38:09.512Z,16.08
2022-08-18T21:41:00.099Z,18.35
2022-08-18T21:43:50.301Z,17.50
2022-08-18T21:46:38.808Z,15.27
2022-08-18T21:49:28.108Z,14.98
2022-08-18T21:52:24.151Z,18.55
2022-08-18T21:55:21.260Z,16.85
2022-08-18T21:58:09.580Z,16.90
2022-08-18T22:01:14.841Z,17.08
2022-08-18T22:04:26.991Z,16.00
2022-08-18T22:07:34.563Z,19.35
2022-08-18T22:10:48.123Z,15.67
2022-08-18T22:14:01.948Z,14.80
2022-08-18T22:16:50.728Z,15.48
2022-08-18T22:19:38.140Z,14.85
2022-08-18T22:23:05.431Z,18.25
2022-08-18T22:25:52.908Z,18.33
2022-08-18T22:29:00.711Z,15.80
2022-08-18T22:31:50.939Z,18.63
2022-08-18T22:34:38.487Z,16.77
2022-08-18T22:37:30.266Z,17.90
2022-08-18T22:40:21.624Z,17.35
2022-08-18T22:43:09.536Z,18.23
2022-08-18T22:45:56.874Z,17.83
2022-08-18T22:48:45.835Z,13.63
2022-08-18T22:51:36.806Z,16.15
2022-08-18T22:54:26.355Z,18.67
2022-08-18T22:57:14.660Z,18.60
2022-08-18T23:00:12.828Z,17.10
2022-08-18T23:03:01.465Z,17.80
2022-08-18T23:05:48.833Z,19.47
2022-08-18T23:08:55.477Z,15.15
2022-08-18T23:11:43.403Z,16.35
2022-08-18T23:14:32.842Z,18.92
2022-08-18T23:20:12.548Z,16.47
2022-08-18T23:23:05.486Z,16.95
2022-08-18T23:25:55.659Z,15.43
2022-08-18T23:28:46.624Z,16.20
2022-08-18T23:31:34.054Z,17.00
2022-08-18T23:34:23.188Z,17.88
2022-08-18T23:37:10.592Z,15.30
2022-08-18T23:39:58.427Z,17.45
2022-08-18T23:42:46.477Z,19.85
2022-08-18T23:45:36.384Z,17.08
2022-08-18T23:48:23.882Z,18.25
2022-08-18T23:51:11.212Z,17.23
2022-08-18T23:54:08.078Z,16.17
2022-08-18T23:56:56.386Z,17.50
2022-08-18T23:59:43.709Z,18.23
